Check out our new BloomSky Weather System.

Active alerts

Houston, TX
  Details for Houston, TX Dense Fog Advisory


Thunder radar  blitzortung!


Rain radar more information rain snow radar


Visit our other weather sites:

Template documentation
and downloads

And another site



Weather Underground History page Text

Daily Summary for June 10, 2017 Units:  Metric    English   Both
« Previous Day
Next Day »
Daily Weekly Monthly Yearly Custom
  High: Low: Average:
Temperature: 31.8 °C 25.6 °C 28.9 °C
Dew Point: 23.5 °C 21.3 °C 22.6 °C
Humidity: 82 % 55 % 69 %
Wind Speed: 19.3 km/h 1.6 km/h 6.9 km/h
Wind Gust: 22.5 km/h - -
Wind:- - SE
Pressure: 1013.4 hPa 1010.7 hPa -
Precipitation: 0 mm    
Historical Graphs
 
 
Tabular Data for June 10, 2017
Time Temperature Dew Point Pressure Wind Wind Speed Wind Gust Humidity Rainfall Rate (Hourly)
08:28 31.4 °C 21.3 °C 1012.4 hPa SSE 19.3 km/h 19.3 km/h 55 % 0 mm
08:29 31.4 °C 21.3 °C 1012.4 hPa SE 17.7 km/h 17.7 km/h 55 % 0 mm
08:30 31.4 °C 21.6 °C 1012.4 hPa South 8 km/h 8 km/h 56 % 0 mm
08:31 31.4 °C 21.6 °C 1012.4 hPa SSE 11.3 km/h 19.3 km/h 56 % 0 mm
13:33 31.6 °C 21.7 °C 1012.4 hPa SSE 3.2 km/h 19.3 km/h 56 % 0 mm
13:38 31.6 °C 21.7 °C 1012.4 hPa SSE 9.7 km/h 11.3 km/h 56 % 0 mm
13:39 31.5 °C 21.7 °C 1012.4 hPa East 6.4 km/h 11.3 km/h 56 % 0 mm
13:44 30.9 °C 22.5 °C 1012.4 hPa ESE 9.7 km/h 19.3 km/h 61 % 0 mm
13:49 30.7 °C 22.8 °C 1012.1 hPa South 11.3 km/h 19.3 km/h 63 % 0 mm
13:54 30.9 °C 22.2 °C 1012.1 hPa SE 9.7 km/h 19.3 km/h 60 % 0 mm
13:59 31.1 °C 22.4 °C 1012.1 hPa SE 9.7 km/h 17.7 km/h 60 % 0 mm
14:04 31.1 °C 22.7 °C 1012.1 hPa ESE 4.8 km/h 17.7 km/h 61 % 0 mm
14:09 31.3 °C 23.1 °C 1012.1 hPa East 11.3 km/h 17.7 km/h 62 % 0 mm
14:14 31.3 °C 22.9 °C 1012.1 hPa SE 8 km/h 20.9 km/h 61 % 0 mm
14:19 31.1 °C 23.2 °C 1012.1 hPa SE 8 km/h 20.9 km/h 63 % 0 mm
14:24 31.3 °C 23.4 °C 1012.1 hPa East 6.4 km/h 20.9 km/h 63 % 0 mm
14:29 31.4 °C 23.5 °C 1012.1 hPa East 4.8 km/h 19.3 km/h 63 % 0 mm
14:34 31.4 °C 23.2 °C 1011.7 hPa SE 8 km/h 19.3 km/h 62 % 0 mm
14:39 31.2 °C 23 °C 1012.1 hPa SSE 9.7 km/h 17.7 km/h 62 % 0 mm
14:44 31.3 °C 22.9 °C 1011.7 hPa SSE 12.9 km/h 19.3 km/h 61 % 0 mm
14:50 31.5 °C 22.5 °C 1011.7 hPa SE 8 km/h 19.3 km/h 59 % 0 mm
14:55 31.5 °C 22.8 °C 1011.7 hPa ENE 8 km/h 19.3 km/h 60 % 0 mm
15:00 31.8 °C 23.1 °C 1011.7 hPa ESE 8 km/h 17.7 km/h 60 % 0 mm
15:05 31.2 °C 22.8 °C 1011.7 hPa SE 9.7 km/h 17.7 km/h 61 % 0 mm
15:10 30.8 °C 22.9 °C 1011.7 hPa SSE 6.4 km/h 17.7 km/h 63 % 0 mm
15:15 30.5 °C 22.9 °C 1011.7 hPa SE 9.7 km/h 17.7 km/h 64 % 0 mm
15:20 30.5 °C 22.9 °C 1011.7 hPa ESE 9.7 km/h 19.3 km/h 64 % 0 mm
15:25 30.6 °C 23.3 °C 1011.7 hPa East 9.7 km/h 22.5 km/h 65 % 0 mm
15:30 30.8 °C 23.2 °C 1011.7 hPa SE 12.9 km/h 22.5 km/h 64 % 0 mm
15:35 30.7 °C 22.8 °C 1011.4 hPa SE 8 km/h 22.5 km/h 63 % 0 mm
15:40 30.6 °C 23 °C 1011.4 hPa SE 8 km/h 20.9 km/h 64 % 0 mm
15:45 30.6 °C 23 °C 1011.4 hPa SSE 9.7 km/h 20.9 km/h 64 % 0 mm
15:50 30.6 °C 23.3 °C 1011.4 hPa ESE 4.8 km/h 19.3 km/h 65 % 0 mm
15:55 30.6 °C 22.7 °C 1011.4 hPa East 12.9 km/h 19.3 km/h 63 % 0 mm
16:00 30.3 °C 22.5 °C 1011.4 hPa ESE 8 km/h 17.7 km/h 63 % 0 mm
16:05 30.3 °C 23 °C 1011.4 hPa SE 11.3 km/h 17.7 km/h 65 % 0 mm
16:10 30.3 °C 22.7 °C 1011.1 hPa ESE 4.8 km/h 17.7 km/h 64 % 0 mm
16:15 30.3 °C 22.7 °C 1011.1 hPa ENE 1.6 km/h 17.7 km/h 64 % 0 mm
16:20 30.3 °C 22.5 °C 1011.1 hPa East 6.4 km/h 17.7 km/h 63 % 0 mm
16:25 30.4 °C 22.8 °C 1011.1 hPa ESE 8 km/h 19.3 km/h 64 % 0 mm
16:30 30.7 °C 22.8 °C 1011.1 hPa East 3.2 km/h 19.3 km/h 63 % 0 mm
16:35 30.7 °C 22.6 °C 1011.1 hPa ESE 6.4 km/h 20.9 km/h 62 % 0 mm
16:40 30.7 °C 22.6 °C 1011.1 hPa ESE 6.4 km/h 20.9 km/h 62 % 0 mm
16:46 30.4 °C 22.3 °C 1011.1 hPa SE 6.4 km/h 20.9 km/h 62 % 0 mm
16:47 30.4 °C 22.3 °C 1011.1 hPa ESE 6.4 km/h 20.9 km/h 62 % 0 mm
16:52 30.1 °C 22.3 °C 1011.1 hPa ESE 9.7 km/h 14.5 km/h 63 % 0 mm
16:57 30 °C 22.2 °C 1011.1 hPa East 6.4 km/h 16.1 km/h 63 % 0 mm
17:02 30 °C 22.2 °C 1011.1 hPa SE 6.4 km/h 17.7 km/h 63 % 0 mm
17:07 30.1 °C 22.3 °C 1011.1 hPa South 4.8 km/h 17.7 km/h 63 % 0 mm
17:12 30.1 °C 22.3 °C 1011.1 hPa SE 3.2 km/h 17.7 km/h 63 % 0 mm
17:17 30 °C 22.4 °C 1011.1 hPa SSE 6.4 km/h 12.9 km/h 64 % 0 mm
17:22 29.9 °C 22.3 °C 1011.1 hPa SSE 4.8 km/h 14.5 km/h 64 % 0 mm
17:27 29.8 °C 22.5 °C 1011.1 hPa SE 9.7 km/h 16.1 km/h 65 % 0 mm
17:37 29.7 °C 22.7 °C 1010.7 hPa SE 8 km/h 20.9 km/h 66 % 0 mm
17:42 29.7 °C 22.9 °C 1010.7 hPa ENE 12.9 km/h 20.9 km/h 67 % 0 mm
17:47 29.7 °C 22.9 °C 1010.7 hPa ESE 6.4 km/h 20.9 km/h 67 % 0 mm
17:52 29.7 °C 23.2 °C 1010.7 hPa SSE 6.4 km/h 17.7 km/h 68 % 0 mm
17:57 29.6 °C 23.1 °C 1011.1 hPa ESE 3.2 km/h 17.7 km/h 68 % 0 mm
18:02 29.4 °C 23.4 °C 1011.1 hPa East 3.2 km/h 14.5 km/h 70 % 0 mm
18:07 29.2 °C 23.4 °C 1010.7 hPa East 6.4 km/h 12.9 km/h 71 % 0 mm
18:12 29.2 °C 23.2 °C 1010.7 hPa SE 9.7 km/h 12.9 km/h 70 % 0 mm
18:17 29.2 °C 22.9 °C 1010.7 hPa SE 1.6 km/h 17.7 km/h 69 % 0 mm
18:22 29.2 °C 22.9 °C 1010.7 hPa East 11.3 km/h 17.7 km/h 69 % 0 mm
18:27 29.1 °C 22.8 °C 1010.7 hPa East 11.3 km/h 17.7 km/h 69 % 0 mm
18:32 29.1 °C 22.8 °C 1010.7 hPa SE 8 km/h 16.1 km/h 69 % 0 mm
18:37 29.1 °C 22.8 °C 1010.7 hPa SE 11.3 km/h 16.1 km/h 69 % 0 mm
18:42 29.1 °C 22.8 °C 1010.7 hPa SE 6.4 km/h 16.1 km/h 69 % 0 mm
18:47 29.1 °C 22.6 °C 1010.7 hPa SSE 6.4 km/h 16.1 km/h 68 % 0 mm
18:52 28.9 °C 22.4 °C 1010.7 hPa ESE 6.4 km/h 16.1 km/h 68 % 0 mm
18:57 28.9 °C 22.4 °C 1010.7 hPa ESE 3.2 km/h 17.7 km/h 68 % 0 mm
19:02 28.9 °C 22.4 °C 1010.7 hPa SE 4.8 km/h 17.7 km/h 68 % 0 mm
19:07 28.8 °C 21.8 °C 1010.7 hPa SE 8 km/h 17.7 km/h 66 % 0 mm
19:12 28.9 °C 21.9 °C 1010.7 hPa ESE 3.2 km/h 16.1 km/h 66 % 0 mm
19:17 28.9 °C 21.9 °C 1010.7 hPa ESE 9.7 km/h 16.1 km/h 66 % 0 mm
19:22 28.9 °C 21.9 °C 1010.7 hPa SE 8 km/h 14.5 km/h 66 % 0 mm
19:28 28.9 °C 22.2 °C 1011.1 hPa ESE 1.6 km/h 14.5 km/h 67 % 0 mm
19:33 28.8 °C 22.1 °C 1011.1 hPa South 6.4 km/h 14.5 km/h 67 % 0 mm
19:38 28.8 °C 21.8 °C 1011.1 hPa East 9.7 km/h 17.7 km/h 66 % 0 mm
19:43 28.7 °C 21.7 °C 1011.1 hPa SE 3.2 km/h 17.7 km/h 66 % 0 mm
19:48 28.7 °C 21.7 °C 1011.1 hPa ESE 3.2 km/h 17.7 km/h 66 % 0 mm
19:53 28.6 °C 22.1 °C 1011.1 hPa SE 6.4 km/h 14.5 km/h 68 % 0 mm
19:58 28.4 °C 22.2 °C 1011.1 hPa ESE 4.8 km/h 9.7 km/h 69 % 0 mm
20:03 28.3 °C 22.1 °C 1011.1 hPa ESE 6.4 km/h 9.7 km/h 69 % 0 mm
20:08 28.2 °C 22 °C 1011.1 hPa SE 4.8 km/h 16.1 km/h 69 % 0 mm
20:13 28.2 °C 22 °C 1011.1 hPa ESE 6.4 km/h 16.1 km/h 69 % 0 mm
20:18 28.1 °C 21.9 °C 1011.1 hPa ESE 6.4 km/h 16.1 km/h 69 % 0 mm
20:23 28 °C 22 °C 1011.1 hPa SE 6.4 km/h 14.5 km/h 70 % 0 mm
20:28 28 °C 22.2 °C 1011.1 hPa ESE 6.4 km/h 14.5 km/h 71 % 0 mm
20:33 27.9 °C 22.6 °C 1011.1 hPa ESE 11.3 km/h 14.5 km/h 73 % 0 mm
20:38 27.8 °C 22.7 °C 1011.1 hPa SE 6.4 km/h 20.9 km/h 74 % 0 mm
20:43 27.6 °C 22.8 °C 1011.1 hPa ESE 9.7 km/h 20.9 km/h 75 % 0 mm
20:48 27.4 °C 22.8 °C 1011.1 hPa ESE 4.8 km/h 20.9 km/h 76 % 0 mm
20:53 27.3 °C 22.7 °C 1011.4 hPa ESE 9.7 km/h 20.9 km/h 76 % 0 mm
20:58 27.2 °C 22.8 °C 1011.4 hPa SE 11.3 km/h 20.9 km/h 77 % 0 mm
21:03 27.1 °C 22.7 °C 1011.4 hPa East 9.7 km/h 20.9 km/h 77 % 0 mm
21:08 27 °C 22.8 °C 1011.4 hPa SE 8 km/h 17.7 km/h 78 % 0 mm
21:18 26.8 °C 22.6 °C 1011.7 hPa SE 4.8 km/h 19.3 km/h 78 % 0 mm
21:23 26.8 °C 22.8 °C 1011.7 hPa SSE 4.8 km/h 19.3 km/h 79 % 0 mm
21:28 26.7 °C 22.8 °C 1011.7 hPa ESE 4.8 km/h 17.7 km/h 79 % 0 mm
21:33 26.6 °C 22.7 °C 1011.7 hPa SE 8 km/h 17.7 km/h 79 % 0 mm
21:38 26.6 °C 22.9 °C 1011.7 hPa SSE 3.2 km/h 16.1 km/h 80 % 0 mm
21:43 26.4 °C 22.7 °C 1012.1 hPa ESE 8 km/h 16.1 km/h 80 % 0 mm
21:48 26.4 °C 22.7 °C 1012.1 hPa SSE 4.8 km/h 12.9 km/h 80 % 0 mm
21:53 26.3 °C 22.8 °C 1012.1 hPa East 1.6 km/h 12.9 km/h 81 % 0 mm
21:58 26.3 °C 22.8 °C 1012.4 hPa SE 3.2 km/h 12.9 km/h 81 % 0 mm
22:03 26.3 °C 22.8 °C 1012.4 hPa SE 8 km/h 12.9 km/h 81 % 0 mm
22:08 26.2 °C 22.7 °C 1012.8 hPa ESE 6.4 km/h 12.9 km/h 81 % 0 mm
22:13 26.2 °C 22.7 °C 1012.8 hPa ESE 6.4 km/h 12.9 km/h 81 % 0 mm
22:18 26.2 °C 22.7 °C 1012.8 hPa SSW 6.4 km/h 12.9 km/h 81 % 0 mm
22:23 26.2 °C 22.7 °C 1012.8 hPa ESE 6.4 km/h 12.9 km/h 81 % 0 mm
22:28 26.2 °C 22.5 °C 1012.8 hPa SSE 4.8 km/h 14.5 km/h 80 % 0 mm
22:29 26.2 °C 22.7 °C 1012.8 hPa South 4.8 km/h 14.5 km/h 81 % 0 mm
22:34 26.1 °C 22.6 °C 1012.8 hPa SE 3.2 km/h 14.5 km/h 81 % 0 mm
22:39 26.1 °C 22.6 °C 1012.8 hPa SSE 1.6 km/h 14.5 km/h 81 % 0 mm
22:44 26.1 °C 22.6 °C 1013.1 hPa ESE 3.2 km/h 11.3 km/h 81 % 0 mm
22:49 26 °C 22.5 °C 1013.1 hPa ESE 6.4 km/h 9.7 km/h 81 % 0 mm
22:54 25.9 °C 22.4 °C 1013.1 hPa SSE 3.2 km/h 8 km/h 81 % 0 mm
22:59 26 °C 22.5 °C 1013.4 hPa ESE 8 km/h 8 km/h 81 % 0 mm
23:04 26 °C 22.5 °C 1013.4 hPa ESE 4.8 km/h 16.1 km/h 81 % 0 mm
23:09 26 °C 22.5 °C 1013.4 hPa ESE 4.8 km/h 16.1 km/h 81 % 0 mm
23:14 25.9 °C 22.4 °C 1013.4 hPa SE 4.8 km/h 16.1 km/h 81 % 0 mm
23:19 25.9 °C 22.4 °C 1013.4 hPa SSE 9.7 km/h 12.9 km/h 81 % 0 mm
23:24 25.9 °C 22.4 °C 1013.4 hPa SSE 1.6 km/h 14.5 km/h 81 % 0 mm
23:29 25.9 °C 22.4 °C 1013.4 hPa SSE 4.8 km/h 14.5 km/h 81 % 0 mm
23:34 25.9 °C 22.4 °C 1013.4 hPa SSE 3.2 km/h 14.5 km/h 81 % 0 mm
23:39 25.9 °C 22.4 °C 1013.4 hPa South 3.2 km/h 14.5 km/h 81 % 0 mm
23:44 25.8 °C 22.5 °C 1013.4 hPa SSE 3.2 km/h 14.5 km/h 82 % 0 mm
23:49 25.8 °C 22.5 °C 1013.4 hPa SSE 4.8 km/h 11.3 km/h 82 % 0 mm
23:54 25.7 °C 22.4 °C 1013.4 hPa SE 1.6 km/h 9.7 km/h 82 % 0 mm
23:59 25.6 °C 22.3 °C 1013.4 hPa SE 4.8 km/h 9.7 km/h 82 % 0 mm
Spring, Texas: Villages of Bridgestone
Compliments of Weather Underground - 2.25 mb

Script developed by  Jim McMurry - jmcmurry@mwt.net Adapted for the template by  Wim van der Kuil - Leuven-Template.eu

You find our weather info also at:

UK Metoffice

WeatherCloud

Weather Underground

Mid-South Weather Network

AWEKAS

Citizen Weather Observer Program (CWOP)

HAMweather, WeatherForYou, PWS Weather

Equipment we use:

Weather-station
Davis Vantage Vue

Weather-program
Meteohub

Weather-server
Debian 7.9 x86 (Guest)

Provider
DreamHost

Davis Vantage Vue

Meteohub

Debian 7.9 x86 (Guest)

DreamHost